Terminal Aerodrome Forecast
Issued by NWS

Home | Current Version | Previous Version | Text Only | Print | Product List | Glossary On
Versions: 1 2 3 4 5 6 7 8 9 10 11 12 13 14 15 16 17 18 19 20 21 22 23 24
103
FTUS43 KAPX 141725
TAFTVC
TAF
KTVC 141725Z 1418/1518 14008KT P6SM SCT035
     FM150200 14004KT P6SM OVC040
     FM150600 16006KT 6SM -SN SCT025 OVC040
     FM151000 16006KT 5SM -SN BKN025 OVC035
     FM151400 17010G15KT 4SM -SN OVC018=

USA.gov is the U.S. government's official web portal to all federal, state and local government web resources and services.